Time;durP1;ratioP1;P1;durP2;ratioP2;P2;SDS_P1;SDS_P2;PMS_P1;PMS_P2;Temp;Humidity;BMP_temperature;BMP_pressure;BME280_temperature;BME280_humidity;BME280_pressure;Samples;Min_cycle;Max_cycle;Signal;HPM_P1;HPM_P2
2023/04/01 00:03:00;;;;;;;3.20;1.40;;;;;;;12.48;53.58;97266.73;223754;182;275387;-70
2023/04/01 00:08:04;;;;;;;2.50;1.30;;;;;;;12.47;53.71;97264.44;223775;182;140094;-71
2023/04/01 00:13:08;;;;;;;4.80;1.40;;;;;;;12.42;53.82;97268.89;223946;183;145703;-67
2023/04/01 00:18:12;;;;;;;2.80;1.30;;;;;;;12.39;53.89;97265.59;223964;182;138963;-70
2023/04/01 00:24:06;;;;;;;;;;;;;;;;;;;;;
2023/04/01 00:29:12;;;;;;;5.20;1.50;;;;;;;12.40;53.96;97251.16;223825;182;146778;-69
2023/04/01 00:34:15;;;;;;;3.00;1.50;;;;;;;12.37;54.07;97245.92;223749;183;138694;-72
2023/04/01 00:39:20;;;;;;;2.80;1.40;;;;;;;12.36;54.19;97245.48;223848;182;137288;-70
2023/04/01 00:44:33;;;;;;;2.30;1.40;;;;;;;12.38;54.24;97244.70;223799;182;145185;-70
2023/04/01 00:49:40;;;;;;;3.80;1.80;;;;;;;12.34;54.26;97236.80;223832;182;140200;-72
2023/04/01 00:54:47;;;;;;;4.50;1.70;;;;;;;12.31;54.37;97236.52;223931;182;136801;-65
2023/04/01 00:59:54;;;;;;;2.70;1.40;;;;;;;12.30;54.43;97232.48;223743;182;145759;-69
2023/04/01 01:05:05;;;;;;;4.10;1.50;;;;;;;12.26;54.59;97232.88;223831;182;142629;-71
2023/04/01 01:10:28;;;;;;;3.70;1.50;;;;;;;12.25;54.66;97238.86;223826;182;136830;-72
2023/04/01 01:15:45;;;;;;;3.20;1.50;;;;;;;12.24;54.88;97247.46;223879;182;145329;-69
2023/04/01 01:21:04;;;;;;;3.10;1.40;;;;;;;12.22;54.90;97241.14;223818;182;138802;-67
2023/04/01 01:26:26;;;;;;;3.00;1.10;;;;;;;12.19;55.12;97252.33;223881;182;136914;-69
2023/04/01 01:31:54;;;;;;;5.40;1.60;;;;;;;12.18;55.24;97255.08;223929;182;145002;-65
2023/04/01 01:37:05;;;;;;;3.50;1.40;;;;;;;12.18;55.33;97250.41;223812;182;138480;-67
2023/04/01 01:42:15;;;;;;;3.70;1.60;;;;;;;12.15;55.45;97252.25;223872;183;137825;-66
2023/04/01 01:47:43;;;;;;;4.00;1.70;;;;;;;12.11;55.47;97259.81;223832;182;146599;-68
2023/04/01 01:52:49;;;;;;;2.70;1.40;;;;;;;12.01;55.76;97265.06;223756;183;138225;-66
2023/04/01 01:58:00;;;;;;;2.70;1.50;;;;;;;12.01;55.95;97269.25;223782;183;137128;-66
2023/04/01 02:03:12;;;;;;;3.60;1.40;;;;;;;12.03;55.96;97271.09;223488;183;145153;-68
2023/04/01 02:08:35;;;;;;;3.30;1.50;;;;;;;12.03;56.01;97262.87;221303;182;138832;-68
2023/04/01 02:14:33;;;;;;;3.50;1.60;;;;;;;11.93;56.34;97260.28;221517;183;137361;-66
2023/04/01 02:19:56;;;;;;;5.20;1.70;;;;;;;11.91;56.50;97260.27;223834;183;145162;-68
2023/04/01 02:25:14;;;;;;;4.50;1.40;;;;;;;11.91;56.64;97261.39;223775;183;138610;-66
2023/04/01 02:30:19;;;;;;;2.90;1.50;;;;;;;11.89;56.75;97267.83;223865;182;136723;-66
2023/04/01 02:42:49;;;;;;;3.00;1.50;;;;;;;11.89;57.04;97277.20;221362;192;665902;-66
2023/04/01 02:47:53;;;;;;;3.00;1.70;;;;;;;11.85;57.06;97280.07;223450;186;136662;-68
2023/04/01 02:53:03;;;;;;;4.00;1.80;;;;;;;11.83;57.13;97282.20;223533;186;143970;-69
2023/04/01 02:58:07;;;;;;;5.80;1.80;;;;;;;11.81;57.25;97284.63;223513;186;138375;-68
2023/04/01 03:03:13;;;;;;;3.10;1.80;;;;;;;11.75;57.37;97291.67;223369;186;137242;-67
2023/04/01 03:08:17;;;;;;;43.00;33.20;;;;;;;11.68;57.60;97295.02;223515;185;143563;-67
2023/04/01 03:13:21;;;;;;;6.70;3.20;;;;;;;11.65;57.79;97294.05;223464;184;138471;-67
2023/04/01 03:18:28;;;;;;;2.80;1.50;;;;;;;11.63;57.91;97294.37;223766;185;136351;-67
2023/04/01 03:23:32;;;;;;;3.90;1.90;;;;;;;11.63;57.96;97291.04;223698;183;143471;-66
2023/04/01 03:28:36;;;;;;;4.60;1.80;;;;;;;11.58;57.97;97288.24;223627;185;138459;-66
2023/04/01 03:33:50;;;;;;;;;;;;;;;;;;;;;
2023/04/01 03:38:58;;;;;;;2.90;1.90;;;;;;;11.58;58.55;97287.19;223729;183;147326;-67
2023/04/01 03:44:23;;;;;;;3.50;1.70;;;;;;;11.58;58.15;97288.10;223485;185;138250;-66
2023/04/01 03:49:28;;;;;;;4.50;1.70;;;;;;;11.60;58.12;97295.49;223591;184;137106;-69
2023/04/01 03:54:32;;;;;;;6.10;1.90;;;;;;;11.58;58.15;97300.36;223613;182;146833;-67
2023/04/01 03:59:36;;;;;;;7.20;2.30;;;;;;;11.53;58.32;97299.44;223567;185;140909;-68
2023/04/01 04:04:41;;;;;;;3.60;1.70;;;;;;;11.51;58.35;97302.27;223757;184;136510;-68
2023/04/01 04:09:44;;;;;;;14.40;6.90;;;;;;;11.58;58.60;97306.08;223674;184;145253;-70
2023/04/01 04:14:48;;;;;;;4.20;2.00;;;;;;;11.65;58.33;97308.48;223864;183;139635;-69
2023/04/01 04:19:52;;;;;;;3.80;2.00;;;;;;;11.65;58.32;97309.15;223984;182;137309;-69
2023/04/01 04:24:57;;;;;;;3.90;1.60;;;;;;;11.63;58.39;97316.80;223980;181;145405;-68
2023/04/01 04:30:07;;;;;;;6.00;1.80;;;;;;;11.60;58.46;97319.44;223896;182;140062;-71
2023/04/01 04:35:29;;;;;;;5.80;1.80;;;;;;;11.61;58.37;97313.73;223930;182;137350;-69
2023/04/01 04:40:37;;;;;;;3.80;1.70;;;;;;;11.61;58.48;97312.25;223861;182;145234;-69
2023/04/01 04:45:41;;;;;;;3.60;1.80;;;;;;;11.66;58.47;97317.41;223829;181;140436;-71
2023/04/01 04:50:50;;;;;;;3.90;2.00;;;;;;;11.69;58.38;97309.27;223911;181;137067;-67
2023/04/01 04:55:55;;;;;;;6.20;2.00;;;;;;;11.70;58.41;97312.19;223960;182;145406;-68
2023/04/01 05:01:12;;;;;;;;;;;;;;;11.74;58.40;97312.73;223911;181;138832;-69
2023/04/01 05:06:17;;;;;;;4.60;2.00;;;;;;;11.75;58.32;97315.61;223908;181;128933;-68
2023/04/01 05:11:21;;;;;;;5.20;1.90;;;;;;;11.76;58.31;97317.52;223854;182;146934;-72
2023/04/01 05:16:26;;;;;;;;;;;;;;;11.77;58.40;97316.27;223860;182;138371;-68
2023/04/01 05:21:39;;;;;;;6.10;2.50;;;;;;;11.78;58.36;97318.84;223926;181;128919;-67
2023/04/01 05:26:43;;;;;;;3.60;2.10;;;;;;;11.81;58.28;97320.52;222973;181;145357;-66
2023/04/01 05:31:47;;;;;;;5.20;2.20;;;;;;;11.87;58.31;97318.92;221565;181;138557;-68
2023/04/01 05:36:52;;;;;;;3.70;2.10;;;;;;;11.90;58.30;97318.55;224003;181;137126;-69
2023/04/01 06:53:33;;;;;;;4.50;2.10;;;;;;;12.31;59.05;97330.02;222674;192;136242;-68
2023/04/01 06:59:45;;;;;;;;;;;;;;;;;;;;;
2023/04/01 07:05:23;;;;;;;5.20;2.30;;;;;;;12.38;58.91;97336.86;222426;191;138320;-69
2023/04/01 07:17:21;;;;;;;3.90;2.00;;;;;;;12.37;58.50;97336.62;223487;199;143838;-69
2023/04/01 07:23:31;;;;;;;4.70;1.90;;;;;;;12.42;58.29;97332.16;223866;186;139728;-67
2023/04/01 07:28:51;;;;;;;8.10;2.30;;;;;;;12.43;57.92;97336.84;223951;182;136274;-72
2023/04/01 07:49:08;;;;;;;5.80;2.50;;;;;;;12.83;57.23;97328.30;221637;190;679364;-69
2023/04/01 07:54:23;;;;;;;6.80;2.30;;;;;;;12.97;57.16;97320.16;223878;182;137580;-67
2023/04/01 07:59:51;;;;;;;6.00;2.20;;;;;;;13.06;56.70;97325.86;223865;183;143523;-69
2023/04/01 08:05:59;;;;;;;8.60;4.30;;;;;;;13.07;56.24;97332.40;223833;181;138989;-64
2023/04/01 08:11:32;;;;;;;4.70;2.00;;;;;;;13.03;56.15;97333.98;223727;182;136600;-67
2023/04/01 08:17:21;;;;;;;4.00;1.60;;;;;;;13.10;55.80;97339.77;223869;182;146415;-66
2023/04/01 08:23:08;;;;;;;6.90;2.00;;;;;;;13.13;55.69;97337.84;221944;182;138394;-67
2023/04/01 08:28:47;;;;;;;16.40;12.50;;;;;;;13.17;55.51;97343.34;223646;182;135893;-67
2023/04/01 08:34:22;;;;;;;14.00;8.60;;;;;;;13.24;55.69;97341.25;223912;182;144400;-68
2023/04/01 08:39:39;;;;;;;4.30;2.20;;;;;;;13.35;55.27;97339.98;223823;183;138511;-67
2023/04/01 08:45:19;;;;;;;3.80;1.70;;;;;;;13.45;55.24;97343.69;223846;182;137088;-67
2023/04/01 08:51:11;;;;;;;3.50;1.80;;;;;;;13.50;54.76;97340.19;223806;182;146364;-67
2023/04/01 08:56:53;;;;;;;4.00;2.00;;;;;;;13.68;54.39;97334.40;223822;183;138865;-68
2023/04/01 09:02:39;;;;;;;3.70;1.70;;;;;;;13.82;53.86;97334.96;223123;183;137312;-68
2023/04/01 09:08:48;;;;;;;5.70;2.40;;;;;;;13.93;53.67;97330.48;223724;183;145300;-68
2023/04/01 09:14:18;;;;;;;4.70;2.00;;;;;;;14.00;53.29;97327.91;223879;183;138781;-67
2023/04/01 09:19:44;;;;;;;3.70;1.70;;;;;;;13.92;52.99;97324.83;223832;183;137098;-67
2023/04/01 09:24:54;;;;;;;2.50;1.50;;;;;;;13.84;52.93;97325.86;223818;183;145371;-69
2023/04/01 09:30:28;;;;;;;4.10;2.00;;;;;;;13.72;53.38;97328.14;223129;183;138835;-67
2023/04/01 09:36:03;;;;;;;4.10;1.90;;;;;;;13.67;54.15;97333.33;223781;182;136517;-67
2023/04/01 09:41:55;;;;;;;4.40;1.60;;;;;;;13.68;55.13;97333.70;223750;183;146052;-67
2023/04/01 09:47:51;;;;;;;2.80;1.60;;;;;;;13.79;54.70;97327.95;223756;183;139851;-67
2023/04/01 09:54:00;;;;;;;;;;;;;;;;;;;;;
2023/04/01 09:59:57;;;;;;;3.20;1.80;;;;;;;13.68;55.19;97343.67;222063;183;145311;-68
2023/04/01 10:05:32;;;;;;;4.10;1.70;;;;;;;13.59;55.10;97346.46;221247;182;139475;-68
2023/04/01 10:10:50;;;;;;;4.10;1.50;;;;;;;13.53;54.93;97353.66;221184;182;136688;-68
2023/04/01 10:16:48;;;;;;;3.50;1.80;;;;;;;13.49;55.12;97359.91;223944;184;146219;-67
2023/04/01 10:22:40;;;;;;;4.00;1.90;;;;;;;13.49;55.35;97359.33;223890;182;138438;-66
2023/04/01 10:28:15;;;;;;;3.50;2.10;;;;;;;13.57;55.46;97363.55;223701;183;136594;-68
2023/04/01 10:34:04;;;;;;;5.40;2.50;;;;;;;13.64;55.94;97375.34;223807;182;145621;-68
2023/04/01 10:39:51;;;;;;;6.30;3.60;;;;;;;13.63;56.02;97367.41;223802;183;139435;-67
2023/04/01 10:46:25;;;;;;;4.30;2.10;;;;;;;13.62;55.89;97370.14;223859;183;136827;-66
2023/04/01 10:52:21;;;;;;;2.90;1.60;;;;;;;13.72;55.36;97367.70;223088;188;145568;-67
2023/04/01 10:58:10;;;;;;;4.10;1.70;;;;;;;13.84;54.46;97366.89;223440;185;138286;-69
2023/04/01 11:04:11;;;;;;;4.50;1.80;;;;;;;13.97;54.14;97363.91;223261;185;137617;-68
2023/04/01 11:09:38;;;;;;;2.30;1.30;;;;;;;14.12;53.75;97362.38;223356;184;146576;-68
2023/04/01 11:14:51;;;;;;;2.50;1.50;;;;;;;14.17;53.14;97364.89;223468;185;138365;-68
2023/04/01 11:20:28;;;;;;;5.90;2.10;;;;;;;14.03;53.49;97369.38;223565;185;137654;-67
2023/04/01 11:25:44;;;;;;;4.80;2.20;;;;;;;13.88;53.76;97377.70;223585;184;145699;-66
2023/04/01 11:32:25;;;;;;;2.60;1.60;;;;;;;13.80;54.72;97365.80;223779;182;138753;-66
2023/04/01 11:37:43;;;;;;;2.20;1.70;;;;;;;14.04;53.17;97368.02;221835;183;136954;-71
2023/04/01 11:50:14;;;;;;;3.10;1.80;;;;;;;13.97;54.35;97371.22;223782;183;139780;-65
2023/04/01 11:55:53;;;;;;;3.60;1.90;;;;;;;13.91;56.70;97376.24;223464;186;136973;-68
2023/04/01 12:04:24;;;;;;;3.00;1.80;;;;;;;14.53;58.00;97367.30;220413;189;679242;-68
2023/04/01 12:09:55;;;;;;;4.80;2.20;;;;;;;15.24;56.53;97364.49;223791;183;136380;-67
2023/04/01 12:15:04;;;;;;;3.20;1.70;;;;;;;15.86;54.02;97358.65;221202;184;144514;-70
2023/04/01 12:27:19;;;;;;;2.60;1.50;;;;;;;15.54;51.96;97360.34;223591;183;136215;-68
2023/04/01 12:33:27;;;;;;;2.20;1.40;;;;;;;15.09;52.57;97373.89;223885;185;145039;-67
2023/04/01 12:39:20;;;;;;;2.70;1.50;;;;;;;14.75;54.50;97386.29;223717;184;139097;-67
2023/04/01 12:51:32;;;;;;;1.60;1.20;;;;;;;14.45;56.98;97379.91;223813;184;145932;-70
2023/04/01 12:57:25;;;;;;;1.40;1.00;;;;;;;14.37;57.39;97379.02;223761;184;139123;-71
2023/04/01 13:03:17;;;;;;;1.90;1.30;;;;;;;14.23;56.69;97382.81;223765;186;136274;-67
2023/04/01 13:08:53;;;;;;;2.00;1.40;;;;;;;14.17;56.97;97391.84;223618;185;145169;-67
2023/04/01 13:20:28;;;;;;;2.70;1.60;;;;;;;14.82;55.84;97389.30;223786;183;137143;-69
2023/04/01 13:25:38;;;;;;;2.20;1.60;;;;;;;14.87;54.86;97387.33;223755;183;145390;-67
2023/04/01 13:31:47;;;;;;;;;;;;;;;;;;;;;
2023/04/01 13:37:48;;;;;;;3.80;1.80;;;;;;;14.48;54.58;97408.38;223776;183;137812;-67
2023/04/01 13:43:19;;;;;;;3.80;1.70;;;;;;;14.23;55.04;97417.16;221709;183;145362;-67
2023/04/01 13:48:58;;;;;;;5.20;1.90;;;;;;;14.12;55.92;97411.80;223738;184;138503;-66
2023/04/01 13:54:17;;;;;;;7.50;1.70;;;;;;;14.10;56.25;97416.45;223841;184;136648;-67
2023/04/01 13:59:51;;;;;;;2.40;1.40;;;;;;;14.15;56.04;97410.39;223808;183;145313;-65
2023/04/01 14:05:30;;;;;;;;;;;;;;;;;;;;;
2023/04/01 14:17:10;;;;;;;2.70;1.20;;;;;;;14.31;55.69;97408.55;223735;184;145281;-67
2023/04/01 14:22:18;;;;;;;1.60;1.20;;;;;;;14.34;55.53;97404.31;223724;183;139219;-69
2023/04/01 14:28:16;;;;;;;3.60;1.40;;;;;;;14.46;54.90;97404.17;223782;183;136619;-66
2023/04/01 14:33:28;;;;;;;4.80;1.70;;;;;;;14.49;55.09;97404.73;223785;183;145188;-65
2023/04/01 14:43:32;;;;;;;;;;;;;;;;;;;;;
2023/04/01 14:49:15;;;;;;;2.80;1.90;;;;;;;14.31;54.94;97430.13;223319;187;136918;-68
2023/04/01 14:54:30;;;;;;;4.00;2.50;;;;;;;14.13;55.52;97431.14;223782;183;143289;-68
2023/04/01 14:59:39;;;;;;;5.30;2.60;;;;;;;14.00;56.36;97432.33;223693;184;138459;-70
2023/04/01 15:04:55;;;;;;;4.20;2.40;;;;;;;14.18;57.13;97434.88;223733;184;136748;-72
2023/04/01 15:10:20;;;;;;;6.00;2.90;;;;;;;14.40;56.53;97429.73;223894;183;143987;-74
2023/04/01 15:16:00;;;;;;;3.80;2.70;;;;;;;14.50;56.26;97430.34;223871;183;138382;-71
2023/04/01 15:21:25;;;;;;;5.80;3.40;;;;;;;14.44;56.16;97437.16;223896;183;136379;-74
2023/04/01 15:26:43;;;;;;;5.80;3.20;;;;;;;14.27;56.67;97440.03;221267;183;144556;-73
2023/04/01 15:32:02;;;;;;;6.60;3.10;;;;;;;14.07;57.90;97454.73;223028;183;138938;-71
2023/04/01 15:37:20;;;;;;;4.20;2.70;;;;;;;13.80;59.61;97463.92;223770;182;137105;-72
2023/04/01 15:43:10;;;;;;;4.10;2.70;;;;;;;13.63;60.72;97470.55;223775;181;145123;-67
2023/04/01 15:48:41;;;;;;;4.90;2.90;;;;;;;13.53;61.58;97477.14;224075;181;140201;-67
2023/04/01 15:54:20;;;;;;;3.20;2.20;;;;;;;13.52;61.43;97481.11;223894;181;136869;-67
2023/04/01 15:59:34;;;;;;;205.40;172.90;;;;;;;13.50;60.92;97494.52;223828;181;145272;-71
2023/04/01 16:04:50;;;;;;;5.30;3.30;;;;;;;13.45;60.81;97490.66;223856;182;139951;-69
2023/04/01 16:09:59;;;;;;;4.50;3.20;;;;;;;13.47;60.83;97497.48;223891;181;136456;-71
2023/04/01 16:15:23;;;;;;;4.20;3.10;;;;;;;13.47;60.74;97501.03;223884;182;144918;-70
2023/04/01 16:27:36;;;;;;;4.70;3.10;;;;;;;13.31;60.95;97513.83;223850;181;136610;-71
2023/04/01 16:32:58;;;;;;;4.40;2.40;;;;;;;13.22;60.94;97518.02;223852;181;145220;-69
2023/04/01 16:38:33;;;;;;;3.90;2.70;;;;;;;13.12;61.20;97519.95;223750;181;139050;-68
2023/04/01 16:43:56;;;;;;;6.00;3.30;;;;;;;13.05;61.20;97529.34;223918;181;137280;-68
2023/04/01 16:49:24;;;;;;;7.10;3.90;;;;;;;12.94;61.43;97538.48;223856;181;147870;-67
2023/04/01 16:54:49;;;;;;;6.80;3.80;;;;;;;12.92;61.58;97543.40;223709;181;140279;-67
2023/04/01 17:00:17;;;;;;;5.80;3.50;;;;;;;12.89;61.96;97551.80;223844;181;136222;-68
2023/04/01 17:05:38;;;;;;;4.80;3.70;;;;;;;12.87;62.20;97558.11;223844;181;145522;-70
2023/04/01 17:25:03;;;;;;;;;;;;;;;;;;;;;
2023/04/01 17:30:43;;;;;;;8.60;6.10;;;;;;;12.93;62.64;97595.22;223745;182;138834;-66
2023/04/01 17:42:42;;;;;;;9.60;6.30;;;;;;;13.08;62.12;97601.13;222243;185;147359;-68
2023/04/01 17:48:33;;;;;;;9.90;5.70;;;;;;;13.08;62.04;97604.39;223523;182;140056;-67
2023/04/01 17:54:12;;;;;;;9.50;6.10;;;;;;;13.01;62.11;97614.58;223928;182;137030;-66
2023/04/01 18:00:08;;;;;;;8.30;6.30;;;;;;;12.94;62.52;97617.42;224080;183;145149;-66
2023/04/01 18:06:10;;;;;;;8.30;5.80;;;;;;;12.92;63.03;97621.66;223553;181;139274;-65
2023/04/01 18:18:14;;;;;;;11.40;7.40;;;;;;;12.77;63.97;97637.30;223743;182;145805;-65
2023/04/01 18:23:53;;;;;;;11.20;8.00;;;;;;;12.81;64.02;97641.99;223754;182;138469;-65
2023/04/01 18:29:40;;;;;;;22.70;16.40;;;;;;;12.91;64.29;97648.13;223785;182;138364;-64
2023/04/01 18:34:55;;;;;;;12.40;9.00;;;;;;;13.02;63.83;97648.19;223832;182;146575;-66
2023/04/01 18:40:25;;;;;;;14.90;9.90;;;;;;;12.96;63.69;97658.20;223903;182;138916;-68
2023/04/01 18:46:27;;;;;;;13.50;9.60;;;;;;;12.85;63.89;97664.69;223845;182;138212;-66
2023/04/01 18:53:00;;;;;;;14.50;9.70;;;;;;;12.81;64.01;97672.08;223379;187;145264;-65
2023/04/01 18:58:28;;;;;;;16.90;10.70;;;;;;;12.77;64.14;97677.15;223690;185;138623;-65
2023/04/01 19:03:58;;;;;;;16.00;10.50;;;;;;;12.74;64.31;97678.20;223786;182;137599;-64
2023/04/01 19:09:45;;;;;;;16.10;11.00;;;;;;;12.73;64.31;97680.58;223812;182;145573;-67
2023/04/01 19:15:37;;;;;;;15.10;11.60;;;;;;;12.70;64.32;97685.33;223665;184;138420;-67
2023/04/01 19:21:37;;;;;;;14.80;11.00;;;;;;;12.65;64.43;97694.56;223707;182;137398;-69
2023/04/01 19:26:51;;;;;;;194.40;148.30;;;;;;;12.64;64.86;97703.35;223840;182;146119;-67
2023/04/01 19:33:10;;;;;;;15.70;12.90;;;;;;;12.77;64.94;97712.63;223851;181;138286;-68
2023/04/01 19:39:16;;;;;;;17.60;13.30;;;;;;;12.85;64.51;97720.61;224003;182;136903;-64
2023/04/01 19:45:38;;;;;;;19.40;14.20;;;;;;;12.83;64.58;97726.54;223789;216;145331;-67
2023/04/01 19:51:09;;;;;;;21.10;14.90;;;;;;;12.71;64.93;97733.98;223729;185;138439;-63
2023/04/01 19:56:33;;;;;;;;;;;;;;;;;;;;;
2023/04/01 20:02:15;;;;;;;24.00;18.00;;;;;;;12.46;65.85;97740.39;223907;182;146459;-66
2023/04/01 20:07:52;;;;;;;22.60;15.80;;;;;;;12.40;66.17;97745.50;224140;183;140554;-64
2023/04/01 20:13:20;;;;;;;21.60;14.70;;;;;;;12.36;66.37;97750.91;223856;183;137622;-65
2023/04/01 20:18:59;;;;;;;19.30;15.00;;;;;;;12.29;66.69;97757.73;223871;182;145037;-64
2023/04/01 20:24:41;;;;;;;18.10;13.50;;;;;;;12.37;66.83;97761.10;223701;183;138196;-63
2023/04/01 21:45:36;;;;;;;21.10;15.30;;;;;;;12.16;68.06;97824.84;220906;193;666285;-75
2023/04/01 21:50:45;;;;;;;20.70;15.20;;;;;;;12.03;68.36;97826.70;221810;188;137593;-76
2023/04/01 21:56:23;;;;;;;18.10;14.00;;;;;;;12.01;68.58;97828.80;221440;185;143276;-76
2023/04/01 22:01:53;;;;;;;18.00;13.60;;;;;;;12.04;68.75;97831.58;223679;185;138121;-75
2023/04/01 22:07:00;;;;;;;20.60;15.00;;;;;;;12.15;68.60;97834.05;222363;184;137143;-76
2023/04/01 22:12:07;;;;;;;19.40;15.00;;;;;;;12.19;68.37;97838.34;223791;185;143979;-76
2023/04/01 22:17:31;;;;;;;18.00;14.30;;;;;;;12.16;68.25;97838.92;223640;184;138617;-76
2023/04/01 22:22:56;;;;;;;20.80;15.10;;;;;;;12.06;68.56;97840.84;223722;185;136759;-75
2023/04/01 22:28:06;;;;;;;21.00;14.70;;;;;;;12.03;68.75;97847.88;223569;185;144206;-76
2023/04/01 22:33:32;;;;;;;21.60;14.30;;;;;;;12.01;68.85;97850.16;220915;184;139358;-75
2023/04/01 22:39:12;;;;;;;18.60;13.40;;;;;;;12.03;68.96;97850.05;223663;185;138157;-75
2023/04/01 22:44:40;;;;;;;22.90;15.10;;;;;;;12.03;69.07;97855.86;223797;184;145293;-75
2023/04/01 22:50:13;;;;;;;20.80;15.00;;;;;;;12.03;69.02;97863.00;223709;184;138549;-74
2023/04/01 22:55:24;;;;;;;20.70;15.00;;;;;;;12.00;69.03;97866.98;223648;184;137396;-74
2023/04/01 23:00:51;;;;;;;19.80;15.30;;;;;;;11.95;69.24;97871.66;223842;183;145908;-75
2023/04/01 23:06:04;;;;;;;29.40;16.40;;;;;;;11.91;69.30;97876.45;223853;182;138160;-74
2023/04/01 23:11:15;;;;;;;19.30;15.70;;;;;;;11.86;69.35;97881.16;223747;182;136722;-75
2023/04/01 23:16:32;;;;;;;20.40;16.00;;;;;;;11.81;69.55;97882.98;223865;182;145301;-76
2023/04/01 23:21:45;;;;;;;23.50;16.10;;;;;;;11.80;69.56;97887.29;223871;182;138153;-76
2023/04/01 23:26:58;;;;;;;23.60;16.30;;;;;;;11.81;69.72;97887.55;223936;182;137711;-76
2023/04/01 23:32:03;;;;;;;21.60;16.30;;;;;;;11.87;69.56;97888.19;222155;182;146751;-77
2023/04/01 23:37:16;;;;;;;23.50;17.20;;;;;;;11.89;69.51;97890.48;222336;183;138974;-77
2023/04/01 23:42:31;;;;;;;24.30;17.20;;;;;;;11.83;69.55;97893.47;223858;182;137188;-77
2023/04/01 23:47:38;;;;;;;24.00;16.70;;;;;;;11.80;69.56;97895.48;219281;182;145262;-76
2023/04/01 23:52:46;;;;;;;22.60;17.50;;;;;;;11.73;69.68;97897.32;223899;183;138478;-76
2023/04/01 23:58:28;;;;;;;20.10;15.90;;;;;;;11.71;69.86;97902.18;221406;183;138079;-76
